sensor_id;sensor_type;location;lat;lon;timestamp;P1;durP1;ratioP1;P2;durP2;ratioP2
62338;SDS011;48368;53.406;6.214;2023-02-28T00:00:10;8.30;;;0.90;;
62338;SDS011;48368;53.406;6.214;2023-02-28T00:02:38;4.78;;;0.95;;
62338;SDS011;48368;53.406;6.214;2023-02-28T00:05:05;4.88;;;0.88;;
62338;SDS011;48368;53.406;6.214;2023-02-28T00:07:32;5.22;;;0.90;;
62338;SDS011;48368;53.406;6.214;2023-02-28T00:09:58;6.07;;;0.70;;
62338;SDS011;48368;53.406;6.214;2023-02-28T00:12:24;5.30;;;0.80;;
62338;SDS011;48368;53.406;6.214;2023-02-28T00:14:50;5.07;;;1.10;;
62338;SDS011;48368;53.406;6.214;2023-02-28T00:17:16;8.98;;;0.80;;
62338;SDS011;48368;53.406;6.214;2023-02-28T00:19:46;5.90;;;0.88;;
62338;SDS011;48368;53.406;6.214;2023-02-28T00:22:16;12.90;;;1.10;;
62338;SDS011;48368;53.406;6.214;2023-02-28T00:24:43;6.13;;;0.90;;
62338;SDS011;48368;53.406;6.214;2023-02-28T00:27:09;7.18;;;0.63;;
62338;SDS011;48368;53.406;6.214;2023-02-28T00:29:35;5.40;;;0.63;;
62338;SDS011;48368;53.406;6.214;2023-02-28T00:32:01;6.28;;;1.27;;
62338;SDS011;48368;53.406;6.214;2023-02-28T00:34:27;7.03;;;0.85;;
62338;SDS011;48368;53.406;6.214;2023-02-28T00:36:52;6.97;;;1.02;;
62338;SDS011;48368;53.406;6.214;2023-02-28T00:39:18;5.88;;;1.15;;
62338;SDS011;48368;53.406;6.214;2023-02-28T00:41:50;6.15;;;1.10;;
62338;SDS011;48368;53.406;6.214;2023-02-28T00:44:15;4.68;;;0.80;;
62338;SDS011;48368;53.406;6.214;2023-02-28T00:46:41;6.47;;;0.90;;
62338;SDS011;48368;53.406;6.214;2023-02-28T00:49:06;6.13;;;0.60;;
62338;SDS011;48368;53.406;6.214;2023-02-28T00:51:32;7.28;;;0.95;;
62338;SDS011;48368;53.406;6.214;2023-02-28T00:53:58;4.80;;;0.70;;
62338;SDS011;48368;53.406;6.214;2023-02-28T00:56:24;4.13;;;0.80;;
62338;SDS011;48368;53.406;6.214;2023-02-28T00:58:49;4.07;;;0.82;;
62338;SDS011;48368;53.406;6.214;2023-02-28T01:01:15;6.80;;;1.50;;
62338;SDS011;48368;53.406;6.214;2023-02-28T01:03:40;5.15;;;0.63;;
62338;SDS011;48368;53.406;6.214;2023-02-28T01:06:07;6.65;;;0.55;;
62338;SDS011;48368;53.406;6.214;2023-02-28T01:08:33;6.65;;;0.63;;
62338;SDS011;48368;53.406;6.214;2023-02-28T01:11:06;5.30;;;0.70;;
62338;SDS011;48368;53.406;6.214;2023-02-28T01:13:32;5.97;;;0.88;;
62338;SDS011;48368;53.406;6.214;2023-02-28T01:15:58;3.78;;;0.60;;
62338;SDS011;48368;53.406;6.214;2023-02-28T01:18:24;5.28;;;0.73;;
62338;SDS011;48368;53.406;6.214;2023-02-28T01:20:50;3.90;;;1.13;;
62338;SDS011;48368;53.406;6.214;2023-02-28T01:23:17;7.80;;;1.48;;
62338;SDS011;48368;53.406;6.214;2023-02-28T01:25:44;3.03;;;0.60;;
62338;SDS011;48368;53.406;6.214;2023-02-28T01:28:10;8.35;;;0.70;;
62338;SDS011;48368;53.406;6.214;2023-02-28T01:30:36;4.25;;;0.93;;
62338;SDS011;48368;53.406;6.214;2023-02-28T01:33:01;9.18;;;1.45;;
62338;SDS011;48368;53.406;6.214;2023-02-28T01:35:27;2.88;;;0.68;;
62338;SDS011;48368;53.406;6.214;2023-02-28T01:37:53;4.60;;;0.80;;
62338;SDS011;48368;53.406;6.214;2023-02-28T01:40:18;4.03;;;0.82;;
62338;SDS011;48368;53.406;6.214;2023-02-28T01:42:45;6.53;;;0.70;;
62338;SDS011;48368;53.406;6.214;2023-02-28T01:45:27;4.72;;;0.75;;
62338;SDS011;48368;53.406;6.214;2023-02-28T01:47:58;7.05;;;1.05;;
62338;SDS011;48368;53.406;6.214;2023-02-28T01:50:28;6.10;;;1.13;;
62338;SDS011;48368;53.406;6.214;2023-02-28T01:52:57;4.28;;;0.73;;
62338;SDS011;48368;53.406;6.214;2023-02-28T01:55:26;4.40;;;1.05;;
62338;SDS011;48368;53.406;6.214;2023-02-28T01:57:55;3.10;;;0.73;;
62338;SDS011;48368;53.406;6.214;2023-02-28T02:00:24;3.78;;;0.93;;
62338;SDS011;48368;53.406;6.214;2023-02-28T02:02:55;6.28;;;0.60;;
62338;SDS011;48368;53.406;6.214;2023-02-28T02:05:27;7.22;;;1.15;;
62338;SDS011;48368;53.406;6.214;2023-02-28T02:07:56;5.90;;;1.25;;
62338;SDS011;48368;53.406;6.214;2023-02-28T02:10:33;7.93;;;1.00;;
62338;SDS011;48368;53.406;6.214;2023-02-28T02:13:19;7.20;;;0.60;;
62338;SDS011;48368;53.406;6.214;2023-02-28T02:16:34;7.03;;;0.63;;
62338;SDS011;48368;53.406;6.214;2023-02-28T02:25:08;4.95;;;0.43;;
62338;SDS011;48368;53.406;6.214;2023-02-28T02:36:23;3.20;;;0.40;;
62338;SDS011;48368;53.406;6.214;2023-02-28T02:38:55;5.28;;;0.68;;
62338;SDS011;48368;53.406;6.214;2023-02-28T02:41:52;5.63;;;0.65;;
62338;SDS011;48368;53.406;6.214;2023-02-28T02:47:06;5.88;;;0.82;;
62338;SDS011;48368;53.406;6.214;2023-02-28T02:49:36;7.75;;;0.80;;
62338;SDS011;48368;53.406;6.214;2023-02-28T02:52:08;5.25;;;0.70;;
62338;SDS011;48368;53.406;6.214;2023-02-28T02:54:36;5.22;;;1.00;;
62338;SDS011;48368;53.406;6.214;2023-02-28T03:00:02;6.03;;;1.25;;
62338;SDS011;48368;53.406;6.214;2023-02-28T03:02:32;5.65;;;1.38;;
62338;SDS011;48368;53.406;6.214;2023-02-28T03:05:01;4.63;;;1.10;;
62338;SDS011;48368;53.406;6.214;2023-02-28T03:07:31;7.72;;;0.98;;
62338;SDS011;48368;53.406;6.214;2023-02-28T03:09:57;6.75;;;2.10;;
62338;SDS011;48368;53.406;6.214;2023-02-28T03:12:23;8.05;;;0.73;;
62338;SDS011;48368;53.406;6.214;2023-02-28T03:22:45;4.15;;;0.90;;
62338;SDS011;48368;53.406;6.214;2023-02-28T03:33:11;9.93;;;1.42;;
62338;SDS011;48368;53.406;6.214;2023-02-28T03:35:48;7.40;;;0.73;;
62338;SDS011;48368;53.406;6.214;2023-02-28T03:38:31;6.25;;;0.85;;
62338;SDS011;48368;53.406;6.214;2023-02-28T03:41:14;6.50;;;0.70;;
62338;SDS011;48368;53.406;6.214;2023-02-28T03:43:53;7.78;;;0.70;;
62338;SDS011;48368;53.406;6.214;2023-02-28T03:46:22;4.35;;;0.63;;
62338;SDS011;48368;53.406;6.214;2023-02-28T03:49:13;3.85;;;0.70;;
62338;SDS011;48368;53.406;6.214;2023-02-28T03:51:58;3.83;;;0.80;;
62338;SDS011;48368;53.406;6.214;2023-02-28T03:54:30;5.43;;;0.73;;
62338;SDS011;48368;53.406;6.214;2023-02-28T03:57:15;7.60;;;0.77;;
62338;SDS011;48368;53.406;6.214;2023-02-28T04:00:04;3.75;;;0.47;;
62338;SDS011;48368;53.406;6.214;2023-02-28T04:02:37;7.82;;;0.70;;
62338;SDS011;48368;53.406;6.214;2023-02-28T04:05:04;8.98;;;0.98;;
62338;SDS011;48368;53.406;6.214;2023-02-28T04:07:31;8.65;;;1.15;;
62338;SDS011;48368;53.406;6.214;2023-02-28T04:09:57;7.40;;;1.13;;
62338;SDS011;48368;53.406;6.214;2023-02-28T04:12:22;6.13;;;0.80;;
62338;SDS011;48368;53.406;6.214;2023-02-28T04:14:49;5.75;;;0.88;;
62338;SDS011;48368;53.406;6.214;2023-02-28T04:17:15;9.90;;;1.33;;
62338;SDS011;48368;53.406;6.214;2023-02-28T04:19:41;6.60;;;1.00;;
62338;SDS011;48368;53.406;6.214;2023-02-28T04:22:07;6.00;;;1.00;;
62338;SDS011;48368;53.406;6.214;2023-02-28T04:24:33;8.50;;;0.95;;
62338;SDS011;48368;53.406;6.214;2023-02-28T04:26:59;5.03;;;0.85;;
62338;SDS011;48368;53.406;6.214;2023-02-28T04:29:26;4.22;;;0.70;;
62338;SDS011;48368;53.406;6.214;2023-02-28T04:31:54;7.03;;;0.90;;
62338;SDS011;48368;53.406;6.214;2023-02-28T04:34:24;4.18;;;0.77;;
62338;SDS011;48368;53.406;6.214;2023-02-28T04:36:51;7.40;;;1.40;;
62338;SDS011;48368;53.406;6.214;2023-02-28T04:39:19;7.38;;;1.15;;
62338;SDS011;48368;53.406;6.214;2023-02-28T04:41:48;8.00;;;0.98;;
62338;SDS011;48368;53.406;6.214;2023-02-28T04:44:14;6.78;;;1.17;;
62338;SDS011;48368;53.406;6.214;2023-02-28T04:46:41;6.53;;;0.90;;
62338;SDS011;48368;53.406;6.214;2023-02-28T04:49:06;6.93;;;1.30;;
62338;SDS011;48368;53.406;6.214;2023-02-28T04:51:35;9.02;;;1.33;;
62338;SDS011;48368;53.406;6.214;2023-02-28T04:54:01;9.23;;;1.10;;
62338;SDS011;48368;53.406;6.214;2023-02-28T04:56:26;12.73;;;1.38;;
62338;SDS011;48368;53.406;6.214;2023-02-28T04:58:52;15.80;;;2.00;;
62338;SDS011;48368;53.406;6.214;2023-02-28T05:01:19;11.32;;;1.60;;
62338;SDS011;48368;53.406;6.214;2023-02-28T05:03:54;7.93;;;1.27;;
62338;SDS011;48368;53.406;6.214;2023-02-28T05:06:21;4.43;;;1.10;;
62338;SDS011;48368;53.406;6.214;2023-02-28T05:08:52;9.93;;;2.58;;
62338;SDS011;48368;53.406;6.214;2023-02-28T05:11:20;8.38;;;1.27;;
62338;SDS011;48368;53.406;6.214;2023-02-28T05:13:48;6.82;;;0.90;;
62338;SDS011;48368;53.406;6.214;2023-02-28T05:16:14;11.10;;;1.63;;
62338;SDS011;48368;53.406;6.214;2023-02-28T05:18:41;10.50;;;1.23;;
62338;SDS011;48368;53.406;6.214;2023-02-28T05:21:13;7.32;;;1.10;;
62338;SDS011;48368;53.406;6.214;2023-02-28T05:23:49;11.02;;;1.75;;
62338;SDS011;48368;53.406;6.214;2023-02-28T05:26:14;8.70;;;1.30;;
62338;SDS011;48368;53.406;6.214;2023-02-28T05:28:40;9.48;;;1.38;;
62338;SDS011;48368;53.406;6.214;2023-02-28T05:31:06;4.18;;;1.20;;
62338;SDS011;48368;53.406;6.214;2023-02-28T05:33:32;8.20;;;1.42;;
62338;SDS011;48368;53.406;6.214;2023-02-28T05:35:58;21.42;;;3.25;;
62338;SDS011;48368;53.406;6.214;2023-02-28T05:38:23;8.40;;;1.70;;
62338;SDS011;48368;53.406;6.214;2023-02-28T05:40:49;8.02;;;1.65;;
62338;SDS011;48368;53.406;6.214;2023-02-28T05:43:16;14.27;;;1.30;;
62338;SDS011;48368;53.406;6.214;2023-02-28T05:45:42;10.13;;;1.67;;
62338;SDS011;48368;53.406;6.214;2023-02-28T05:48:08;11.80;;;1.58;;
62338;SDS011;48368;53.406;6.214;2023-02-28T05:50:33;13.43;;;2.03;;
62338;SDS011;48368;53.406;6.214;2023-02-28T05:52:59;7.80;;;2.00;;
62338;SDS011;48368;53.406;6.214;2023-02-28T05:55:24;10.00;;;2.08;;
62338;SDS011;48368;53.406;6.214;2023-02-28T05:57:50;14.85;;;2.38;;
62338;SDS011;48368;53.406;6.214;2023-02-28T06:00:16;12.27;;;3.10;;
62338;SDS011;48368;53.406;6.214;2023-02-28T06:02:42;7.97;;;3.08;;
62338;SDS011;48368;53.406;6.214;2023-02-28T06:05:15;11.38;;;3.00;;
62338;SDS011;48368;53.406;6.214;2023-02-28T06:07:43;6.93;;;2.13;;
62338;SDS011;48368;53.406;6.214;2023-02-28T06:10:12;8.90;;;2.92;;
62338;SDS011;48368;53.406;6.214;2023-02-28T06:12:37;32.55;;;22.42;;
62338;SDS011;48368;53.406;6.214;2023-02-28T06:15:03;33.78;;;23.10;;
62338;SDS011;48368;53.406;6.214;2023-02-28T06:17:29;13.98;;;8.75;;
62338;SDS011;48368;53.406;6.214;2023-02-28T06:19:55;18.85;;;11.82;;
62338;SDS011;48368;53.406;6.214;2023-02-28T06:22:21;30.23;;;18.35;;
62338;SDS011;48368;53.406;6.214;2023-02-28T06:24:46;24.05;;;17.73;;
62338;SDS011;48368;53.406;6.214;2023-02-28T06:27:12;14.23;;;7.35;;
62338;SDS011;48368;53.406;6.214;2023-02-28T06:29:38;12.60;;;5.22;;
62338;SDS011;48368;53.406;6.214;2023-02-28T06:32:04;9.80;;;5.28;;
62338;SDS011;48368;53.406;6.214;2023-02-28T06:34:30;10.98;;;6.15;;
62338;SDS011;48368;53.406;6.214;2023-02-28T06:36:56;12.93;;;7.10;;
62338;SDS011;48368;53.406;6.214;2023-02-28T06:39:27;13.82;;;9.07;;
62338;SDS011;48368;53.406;6.214;2023-02-28T06:41:53;11.25;;;7.75;;
62338;SDS011;48368;53.406;6.214;2023-02-28T06:44:19;12.52;;;7.95;;
62338;SDS011;48368;53.406;6.214;2023-02-28T06:46:45;14.10;;;8.15;;
62338;SDS011;48368;53.406;6.214;2023-02-28T06:49:11;12.60;;;7.57;;
62338;SDS011;48368;53.406;6.214;2023-02-28T06:51:38;14.30;;;8.48;;
62338;SDS011;48368;53.406;6.214;2023-02-28T06:54:05;13.05;;;8.23;;
62338;SDS011;48368;53.406;6.214;2023-02-28T06:56:34;14.65;;;8.10;;
62338;SDS011;48368;53.406;6.214;2023-02-28T06:59:00;12.45;;;7.93;;
62338;SDS011;48368;53.406;6.214;2023-02-28T07:01:25;13.80;;;7.47;;
62338;SDS011;48368;53.406;6.214;2023-02-28T07:03:52;14.65;;;8.40;;
62338;SDS011;48368;53.406;6.214;2023-02-28T07:06:19;15.95;;;8.90;;
62338;SDS011;48368;53.406;6.214;2023-02-28T07:08:47;15.88;;;9.35;;
62338;SDS011;48368;53.406;6.214;2023-02-28T07:11:14;17.83;;;8.80;;
62338;SDS011;48368;53.406;6.214;2023-02-28T07:13:40;15.48;;;8.50;;
62338;SDS011;48368;53.406;6.214;2023-02-28T07:16:06;16.60;;;8.13;;
62338;SDS011;48368;53.406;6.214;2023-02-28T07:18:34;17.90;;;9.55;;
62338;SDS011;48368;53.406;6.214;2023-02-28T07:21:08;18.42;;;10.80;;
62338;SDS011;48368;53.406;6.214;2023-02-28T07:23:34;16.83;;;9.50;;
62338;SDS011;48368;53.406;6.214;2023-02-28T07:26:03;13.93;;;9.43;;
62338;SDS011;48368;53.406;6.214;2023-02-28T07:28:29;16.08;;;8.38;;
62338;SDS011;48368;53.406;6.214;2023-02-28T07:30:55;17.75;;;9.18;;
62338;SDS011;48368;53.406;6.214;2023-02-28T07:33:21;14.50;;;8.98;;
62338;SDS011;48368;53.406;6.214;2023-02-28T07:35:46;17.77;;;9.18;;
62338;SDS011;48368;53.406;6.214;2023-02-28T07:38:12;14.57;;;7.72;;
62338;SDS011;48368;53.406;6.214;2023-02-28T07:40:38;15.27;;;8.55;;
62338;SDS011;48368;53.406;6.214;2023-02-28T07:43:04;13.25;;;7.78;;
62338;SDS011;48368;53.406;6.214;2023-02-28T07:45:30;16.45;;;8.23;;
62338;SDS011;48368;53.406;6.214;2023-02-28T07:47:59;12.25;;;7.22;;
62338;SDS011;48368;53.406;6.214;2023-02-28T07:50:25;11.27;;;6.32;;
62338;SDS011;48368;53.406;6.214;2023-02-28T07:52:56;15.02;;;7.90;;
62338;SDS011;48368;53.406;6.214;2023-02-28T07:55:22;14.38;;;7.78;;
62338;SDS011;48368;53.406;6.214;2023-02-28T07:57:48;16.17;;;8.23;;
62338;SDS011;48368;53.406;6.214;2023-02-28T08:00:14;16.75;;;8.30;;
62338;SDS011;48368;53.406;6.214;2023-02-28T08:02:40;16.83;;;9.43;;
62338;SDS011;48368;53.406;6.214;2023-02-28T08:05:06;17.63;;;10.48;;
62338;SDS011;48368;53.406;6.214;2023-02-28T08:07:32;17.60;;;9.65;;
62338;SDS011;48368;53.406;6.214;2023-02-28T08:09:58;17.77;;;10.27;;
62338;SDS011;48368;53.406;6.214;2023-02-28T08:12:27;17.10;;;9.52;;
62338;SDS011;48368;53.406;6.214;2023-02-28T08:14:53;17.60;;;9.93;;
62338;SDS011;48368;53.406;6.214;2023-02-28T08:17:18;20.60;;;10.73;;
62338;SDS011;48368;53.406;6.214;2023-02-28T08:19:47;19.48;;;10.32;;
62338;SDS011;48368;53.406;6.214;2023-02-28T08:22:13;18.33;;;10.15;;
62338;SDS011;48368;53.406;6.214;2023-02-28T08:24:43;22.00;;;11.20;;
62338;SDS011;48368;53.406;6.214;2023-02-28T08:27:09;18.95;;;11.52;;
62338;SDS011;48368;53.406;6.214;2023-02-28T08:29:36;18.17;;;10.15;;
62338;SDS011;48368;53.406;6.214;2023-02-28T08:32:03;23.20;;;11.00;;
62338;SDS011;48368;53.406;6.214;2023-02-28T08:34:29;30.45;;;15.25;;
62338;SDS011;48368;53.406;6.214;2023-02-28T08:36:55;26.65;;;13.50;;
62338;SDS011;48368;53.406;6.214;2023-02-28T08:39:22;18.88;;;10.73;;
62338;SDS011;48368;53.406;6.214;2023-02-28T08:41:48;20.02;;;10.48;;
62338;SDS011;48368;53.406;6.214;2023-02-28T08:44:13;20.52;;;11.60;;
62338;SDS011;48368;53.406;6.214;2023-02-28T08:46:39;19.25;;;10.88;;
62338;SDS011;48368;53.406;6.214;2023-02-28T08:49:05;19.20;;;10.35;;
62338;SDS011;48368;53.406;6.214;2023-02-28T08:51:32;21.27;;;11.05;;
62338;SDS011;48368;53.406;6.214;2023-02-28T08:53:58;22.17;;;12.48;;
62338;SDS011;48368;53.406;6.214;2023-02-28T08:56:25;20.10;;;11.45;;
62338;SDS011;48368;53.406;6.214;2023-02-28T08:58:53;21.95;;;11.52;;
62338;SDS011;48368;53.406;6.214;2023-02-28T09:01:27;22.38;;;12.30;;
62338;SDS011;48368;53.406;6.214;2023-02-28T09:03:54;22.45;;;11.77;;
62338;SDS011;48368;53.406;6.214;2023-02-28T09:06:21;21.42;;;11.38;;
62338;SDS011;48368;53.406;6.214;2023-02-28T09:08:48;20.30;;;11.00;;
62338;SDS011;48368;53.406;6.214;2023-02-28T09:11:14;21.05;;;10.93;;
62338;SDS011;48368;53.406;6.214;2023-02-28T09:13:40;20.55;;;10.93;;
62338;SDS011;48368;53.406;6.214;2023-02-28T09:16:07;23.20;;;11.25;;
62338;SDS011;48368;53.406;6.214;2023-02-28T09:18:36;19.92;;;11.38;;
62338;SDS011;48368;53.406;6.214;2023-02-28T09:21:03;19.30;;;10.63;;
62338;SDS011;48368;53.406;6.214;2023-02-28T09:23:34;20.45;;;11.35;;
62338;SDS011;48368;53.406;6.214;2023-02-28T09:26:00;24.17;;;11.90;;
62338;SDS011;48368;53.406;6.214;2023-02-28T09:28:26;20.85;;;11.43;;
62338;SDS011;48368;53.406;6.214;2023-02-28T09:30:52;21.10;;;10.88;;
62338;SDS011;48368;53.406;6.214;2023-02-28T09:33:19;19.17;;;10.68;;
62338;SDS011;48368;53.406;6.214;2023-02-28T09:35:49;17.75;;;9.10;;
62338;SDS011;48368;53.406;6.214;2023-02-28T09:38:18;14.07;;;8.00;;
62338;SDS011;48368;53.406;6.214;2023-02-28T09:40:50;15.73;;;8.90;;
62338;SDS011;48368;53.406;6.214;2023-02-28T09:43:17;16.52;;;9.20;;
62338;SDS011;48368;53.406;6.214;2023-02-28T09:45:52;19.05;;;10.05;;
62338;SDS011;48368;53.406;6.214;2023-02-28T09:48:32;17.55;;;10.90;;
62338;SDS011;48368;53.406;6.214;2023-02-28T09:51:03;16.40;;;9.43;;
62338;SDS011;48368;53.406;6.214;2023-02-28T09:53:49;15.52;;;8.88;;
62338;SDS011;48368;53.406;6.214;2023-02-28T09:56:18;17.65;;;9.52;;
62338;SDS011;48368;53.406;6.214;2023-02-28T09:59:01;14.73;;;8.23;;
62338;SDS011;48368;53.406;6.214;2023-02-28T10:12:58;13.68;;;7.03;;
62338;SDS011;48368;53.406;6.214;2023-02-28T10:15:29;15.70;;;8.77;;
62338;SDS011;48368;53.406;6.214;2023-02-28T10:18:02;16.88;;;8.63;;
62338;SDS011;48368;53.406;6.214;2023-02-28T10:20:31;14.55;;;7.40;;
62338;SDS011;48368;53.406;6.214;2023-02-28T10:23:17;17.38;;;9.02;;
62338;SDS011;48368;53.406;6.214;2023-02-28T10:26:00;13.55;;;8.55;;
62338;SDS011;48368;53.406;6.214;2023-02-28T10:28:35;14.45;;;8.20;;
62338;SDS011;48368;53.406;6.214;2023-02-28T10:31:00;16.50;;;8.98;;
62338;SDS011;48368;53.406;6.214;2023-02-28T10:35:58;14.88;;;8.93;;
62338;SDS011;48368;53.406;6.214;2023-02-28T10:38:34;16.38;;;9.48;;
62338;SDS011;48368;53.406;6.214;2023-02-28T10:44:14;17.42;;;9.05;;
62338;SDS011;48368;53.406;6.214;2023-02-28T10:46:48;15.38;;;8.75;;
62338;SDS011;48368;53.406;6.214;2023-02-28T10:49:17;18.73;;;9.20;;
62338;SDS011;48368;53.406;6.214;2023-02-28T10:51:52;15.20;;;8.88;;
62338;SDS011;48368;53.406;6.214;2023-02-28T10:54:23;18.15;;;9.38;;
62338;SDS011;48368;53.406;6.214;2023-02-28T10:59:52;17.40;;;9.93;;
62338;SDS011;48368;53.406;6.214;2023-02-28T11:02:36;18.48;;;10.10;;
62338;SDS011;48368;53.406;6.214;2023-02-28T11:05:24;18.30;;;10.43;;
62338;SDS011;48368;53.406;6.214;2023-02-28T11:10:54;20.58;;;10.20;;
62338;SDS011;48368;53.406;6.214;2023-02-28T11:13:25;61.22;;;12.27;;
62338;SDS011;48368;53.406;6.214;2023-02-28T11:15:55;19.73;;;9.43;;
62338;SDS011;48368;53.406;6.214;2023-02-28T11:18:30;15.32;;;9.07;;
62338;SDS011;48368;53.406;6.214;2023-02-28T11:21:23;17.25;;;9.43;;
62338;SDS011;48368;53.406;6.214;2023-02-28T11:24:01;16.95;;;9.38;;
62338;SDS011;48368;53.406;6.214;2023-02-28T11:26:38;17.58;;;9.35;;
62338;SDS011;48368;53.406;6.214;2023-02-28T11:29:16;18.95;;;9.23;;
62338;SDS011;48368;53.406;6.214;2023-02-28T11:32:00;19.52;;;9.13;;
62338;SDS011;48368;53.406;6.214;2023-02-28T11:34:28;14.68;;;8.48;;
62338;SDS011;48368;53.406;6.214;2023-02-28T11:36:55;15.30;;;8.43;;
62338;SDS011;48368;53.406;6.214;2023-02-28T11:39:25;15.48;;;9.25;;
62338;SDS011;48368;53.406;6.214;2023-02-28T11:47:26;17.88;;;9.63;;
62338;SDS011;48368;53.406;6.214;2023-02-28T11:50:35;20.25;;;9.68;;
62338;SDS011;48368;53.406;6.214;2023-02-28T11:56:06;16.05;;;9.43;;
62338;SDS011;48368;53.406;6.214;2023-02-28T12:04:22;17.42;;;9.27;;
62338;SDS011;48368;53.406;6.214;2023-02-28T12:26:48;14.15;;;8.90;;
62338;SDS011;48368;53.406;6.214;2023-02-28T12:29:21;14.18;;;7.82;;
62338;SDS011;48368;53.406;6.214;2023-02-28T12:31:56;15.13;;;8.95;;
62338;SDS011;48368;53.406;6.214;2023-02-28T12:34:32;14.85;;;8.57;;
62338;SDS011;48368;53.406;6.214;2023-02-28T12:37:04;14.02;;;8.50;;
62338;SDS011;48368;53.406;6.214;2023-02-28T12:39:36;15.45;;;9.43;;
62338;SDS011;48368;53.406;6.214;2023-02-28T12:42:10;13.93;;;8.60;;
62338;SDS011;48368;53.406;6.214;2023-02-28T12:44:49;16.58;;;9.15;;
62338;SDS011;48368;53.406;6.214;2023-02-28T12:47:19;15.75;;;9.23;;
62338;SDS011;48368;53.406;6.214;2023-02-28T12:49:58;15.75;;;9.68;;
62338;SDS011;48368;53.406;6.214;2023-02-28T12:52:35;12.38;;;8.10;;
62338;SDS011;48368;53.406;6.214;2023-02-28T13:01:00;17.08;;;8.52;;
62338;SDS011;48368;53.406;6.214;2023-02-28T13:09:13;14.50;;;7.80;;
62338;SDS011;48368;53.406;6.214;2023-02-28T13:11:42;19.13;;;8.55;;
62338;SDS011;48368;53.406;6.214;2023-02-28T13:19:32;14.32;;;7.95;;
62338;SDS011;48368;53.406;6.214;2023-02-28T13:21:59;12.50;;;7.90;;
62338;SDS011;48368;53.406;6.214;2023-02-28T13:24:37;13.80;;;8.43;;
62338;SDS011;48368;53.406;6.214;2023-02-28T13:29:39;14.10;;;7.63;;
62338;SDS011;48368;53.406;6.214;2023-02-28T13:39:55;15.88;;;7.85;;
62338;SDS011;48368;53.406;6.214;2023-02-28T13:50:21;14.05;;;7.82;;
62338;SDS011;48368;53.406;6.214;2023-02-28T14:01:26;14.77;;;7.22;;
62338;SDS011;48368;53.406;6.214;2023-02-28T14:07:18;14.07;;;8.10;;
62338;SDS011;48368;53.406;6.214;2023-02-28T14:09:59;12.77;;;8.05;;
62338;SDS011;48368;53.406;6.214;2023-02-28T14:18:24;14.10;;;8.18;;
62338;SDS011;48368;53.406;6.214;2023-02-28T14:20:57;13.43;;;7.53;;
62338;SDS011;48368;53.406;6.214;2023-02-28T14:30:12;12.02;;;7.63;;
62338;SDS011;48368;53.406;6.214;2023-02-28T14:37:26;13.40;;;7.93;;
62338;SDS011;48368;53.406;6.214;2023-02-28T14:39:59;12.95;;;8.27;;
62338;SDS011;48368;53.406;6.214;2023-02-28T14:42:33;13.73;;;8.00;;
62338;SDS011;48368;53.406;6.214;2023-02-28T14:45:01;15.40;;;8.45;;
62338;SDS011;48368;53.406;6.214;2023-02-28T14:47:28;16.58;;;8.80;;
62338;SDS011;48368;53.406;6.214;2023-02-28T14:49:58;13.80;;;8.27;;
62338;SDS011;48368;53.406;6.214;2023-02-28T14:52:26;12.07;;;7.93;;
62338;SDS011;48368;53.406;6.214;2023-02-28T14:54:55;15.25;;;8.82;;
62338;SDS011;48368;53.406;6.214;2023-02-28T14:57:50;13.02;;;7.80;;
62338;SDS011;48368;53.406;6.214;2023-02-28T15:00:23;16.60;;;8.88;;
62338;SDS011;48368;53.406;6.214;2023-02-28T15:02:51;12.88;;;7.60;;
62338;SDS011;48368;53.406;6.214;2023-02-28T15:05:31;13.00;;;7.88;;
62338;SDS011;48368;53.406;6.214;2023-02-28T15:08:05;12.52;;;8.13;;
62338;SDS011;48368;53.406;6.214;2023-02-28T15:10:37;12.95;;;8.38;;
62338;SDS011;48368;53.406;6.214;2023-02-28T15:13:06;14.60;;;8.25;;
62338;SDS011;48368;53.406;6.214;2023-02-28T15:20:48;13.82;;;8.15;;
62338;SDS011;48368;53.406;6.214;2023-02-28T15:23:15;13.63;;;8.00;;
62338;SDS011;48368;53.406;6.214;2023-02-28T15:25:42;11.70;;;7.63;;
62338;SDS011;48368;53.406;6.214;2023-02-28T15:28:10;12.75;;;8.07;;
62338;SDS011;48368;53.406;6.214;2023-02-28T15:30:49;11.65;;;8.13;;
62338;SDS011;48368;53.406;6.214;2023-02-28T15:33:18;11.65;;;6.82;;
62338;SDS011;48368;53.406;6.214;2023-02-28T15:35:44;10.27;;;6.65;;
62338;SDS011;48368;53.406;6.214;2023-02-28T15:38:26;15.68;;;8.25;;
62338;SDS011;48368;53.406;6.214;2023-02-28T15:40:56;13.10;;;7.67;;
62338;SDS011;48368;53.406;6.214;2023-02-28T15:45:51;11.85;;;7.53;;
62338;SDS011;48368;53.406;6.214;2023-02-28T15:51:14;10.43;;;6.28;;
62338;SDS011;48368;53.406;6.214;2023-02-28T15:53:48;14.68;;;7.82;;
62338;SDS011;48368;53.406;6.214;2023-02-28T15:56:31;13.30;;;6.88;;
62338;SDS011;48368;53.406;6.214;2023-02-28T15:59:03;11.05;;;6.43;;
62338;SDS011;48368;53.406;6.214;2023-02-28T16:01:39;11.53;;;6.70;;
62338;SDS011;48368;53.406;6.214;2023-02-28T16:04:06;12.27;;;6.28;;
62338;SDS011;48368;53.406;6.214;2023-02-28T16:07:24;12.95;;;7.25;;
62338;SDS011;48368;53.406;6.214;2023-02-28T16:09:24;13.38;;;6.88;;
62338;SDS011;48368;53.406;6.214;2023-02-28T16:11:52;10.55;;;6.85;;
62338;SDS011;48368;53.406;6.214;2023-02-28T16:14:24;12.70;;;7.88;;
62338;SDS011;48368;53.406;6.214;2023-02-28T16:17:05;15.77;;;7.75;;
62338;SDS011;48368;53.406;6.214;2023-02-28T16:19:34;15.55;;;7.80;;
62338;SDS011;48368;53.406;6.214;2023-02-28T16:22:00;13.77;;;6.88;;
62338;SDS011;48368;53.406;6.214;2023-02-28T16:24:26;16.17;;;7.85;;
62338;SDS011;48368;53.406;6.214;2023-02-28T16:26:52;13.73;;;7.43;;
62338;SDS011;48368;53.406;6.214;2023-02-28T16:29:23;16.95;;;8.27;;
62338;SDS011;48368;53.406;6.214;2023-02-28T16:31:52;13.57;;;7.32;;
62338;SDS011;48368;53.406;6.214;2023-02-28T16:34:18;11.05;;;6.97;;
62338;SDS011;48368;53.406;6.214;2023-02-28T16:36:46;12.95;;;6.75;;
62338;SDS011;48368;53.406;6.214;2023-02-28T16:39:12;11.88;;;5.80;;
62338;SDS011;48368;53.406;6.214;2023-02-28T16:41:38;11.20;;;5.95;;
62338;SDS011;48368;53.406;6.214;2023-02-28T16:44:09;9.30;;;6.00;;
62338;SDS011;48368;53.406;6.214;2023-02-28T16:46:49;11.82;;;6.55;;
62338;SDS011;48368;53.406;6.214;2023-02-28T16:49:15;11.88;;;6.70;;
62338;SDS011;48368;53.406;6.214;2023-02-28T16:51:40;12.02;;;6.32;;
62338;SDS011;48368;53.406;6.214;2023-02-28T16:54:06;8.63;;;5.82;;
62338;SDS011;48368;53.406;6.214;2023-02-28T16:56:31;10.27;;;6.15;;
62338;SDS011;48368;53.406;6.214;2023-02-28T16:58:59;9.95;;;6.30;;
62338;SDS011;48368;53.406;6.214;2023-02-28T17:01:26;11.73;;;6.28;;
62338;SDS011;48368;53.406;6.214;2023-02-28T17:03:53;11.68;;;6.68;;
62338;SDS011;48368;53.406;6.214;2023-02-28T17:06:29;11.40;;;6.45;;
62338;SDS011;48368;53.406;6.214;2023-02-28T17:08:56;10.63;;;6.43;;
62338;SDS011;48368;53.406;6.214;2023-02-28T17:11:23;10.57;;;6.72;;
62338;SDS011;48368;53.406;6.214;2023-02-28T17:13:49;11.95;;;6.50;;
62338;SDS011;48368;53.406;6.214;2023-02-28T17:16:17;11.10;;;6.57;;
62338;SDS011;48368;53.406;6.214;2023-02-28T17:18:45;13.20;;;6.30;;
62338;SDS011;48368;53.406;6.214;2023-02-28T17:21:15;11.70;;;6.32;;
62338;SDS011;48368;53.406;6.214;2023-02-28T17:23:41;10.18;;;6.13;;
62338;SDS011;48368;53.406;6.214;2023-02-28T17:26:10;10.88;;;7.00;;
62338;SDS011;48368;53.406;6.214;2023-02-28T17:28:38;12.10;;;6.80;;
62338;SDS011;48368;53.406;6.214;2023-02-28T17:31:04;11.48;;;7.03;;
62338;SDS011;48368;53.406;6.214;2023-02-28T17:33:29;10.85;;;6.30;;
62338;SDS011;48368;53.406;6.214;2023-02-28T17:35:55;11.68;;;6.63;;
62338;SDS011;48368;53.406;6.214;2023-02-28T17:38:20;10.20;;;6.35;;
62338;SDS011;48368;53.406;6.214;2023-02-28T17:40:54;11.23;;;6.43;;